createdAt,value
2016-10-02T00:00:00.645Z,735.64
2016-10-02T00:01:00.632Z,735.69
2016-10-02T00:02:00.619Z,735.58
2016-10-02T00:03:00.608Z,735.62
2016-10-02T00:04:00.593Z,735.57
2016-10-02T00:05:00.581Z,735.62
2016-10-02T00:06:00.569Z,735.62
2016-10-02T00:07:00.556Z,735.63
2016-10-02T00:08:00.543Z,735.64
2016-10-02T00:09:00.523Z,735.62
2016-10-02T00:10:00.511Z,735.66
2016-10-02T00:11:00.505Z,735.55
2016-10-02T00:12:00.486Z,735.61
2016-10-02T00:13:00.475Z,735.55
2016-10-02T00:14:00.461Z,735.56
2016-10-02T00:15:00.449Z,735.54
2016-10-02T00:16:00.443Z,735.51
2016-10-02T00:17:00.476Z,735.49
2016-10-02T00:18:00.412Z,735.45
2016-10-02T00:19:00.406Z,735.39
2016-10-02T00:20:00.387Z,735.42
2016-10-02T00:21:00.374Z,735.47
2016-10-02T00:22:00.362Z,735.44
2016-10-02T00:23:00.356Z,735.5
2016-10-02T00:24:00.343Z,735.43
2016-10-02T00:25:00.323Z,735.45
2016-10-02T00:26:00.312Z,735.52
2016-10-02T00:27:00.297Z,735.45
2016-10-02T00:28:00.293Z,735.47
2016-10-02T00:29:00.274Z,735.47
2016-10-02T00:30:00.268Z,735.42
2016-10-02T00:31:00.255Z,735.38
2016-10-02T00:32:00.237Z,735.33
2016-10-02T00:33:00.223Z,735.37
2016-10-02T00:34:00.210Z,735.37
2016-10-02T00:35:00.205Z,735.34
2016-10-02T00:36:00.193Z,735.32
2016-10-02T00:37:00.173Z,735.32
2016-10-02T00:38:00.163Z,735.33
2016-10-02T00:39:00.149Z,735.28
2016-10-02T00:40:00.144Z,735.36
2016-10-02T00:41:00.125Z,735.29
2016-10-02T00:42:00.111Z,735.31
2016-10-02T00:43:00.100Z,735.27
2016-10-02T00:44:00.087Z,735.28
2016-10-02T00:45:00.082Z,735.25
2016-10-02T00:46:00.070Z,735.33
2016-10-02T00:47:00.050Z,735.29
2016-10-02T00:48:00.044Z,735.34
2016-10-02T00:49:00.024Z,735.28
2016-10-02T00:50:00.013Z,735.26
2016-10-02T00:51:00.001Z,735.24
2016-10-02T00:51:59.989Z,735.27
2016-10-02T00:52:59.983Z,735.2
2016-10-02T00:53:59.970Z,735.17
2016-10-02T00:54:59.957Z,735.16
2016-10-02T00:55:59.944Z,735.22
2016-10-02T00:56:59.927Z,735.34
2016-10-02T00:57:59.920Z,735.24
2016-10-02T00:58:59.908Z,735.23
2016-10-02T00:59:59.895Z,735.22
2016-10-02T01:00:59.882Z,735.23
2016-10-02T01:01:59.871Z,735.27
2016-10-02T01:02:59.857Z,735.23
2016-10-02T01:03:59.845Z,735.24
2016-10-02T01:04:59.832Z,735.19
2016-10-02T01:05:59.819Z,735.21
2016-10-02T01:06:59.799Z,735.26
2016-10-02T01:07:59.794Z,735.21
2016-10-02T01:08:59.775Z,735.2
2016-10-02T01:09:59.768Z,735.22
2016-10-02T01:10:59.755Z,735.23
2016-10-02T01:11:59.736Z,735.17
2016-10-02T01:12:59.731Z,735.2
2016-10-02T01:13:59.718Z,735.2
2016-10-02T01:14:59.704Z,735.2
2016-10-02T01:15:59.692Z,735.17
2016-10-02T01:16:59.679Z,735.16
2016-10-02T01:17:59.660Z,735.15
2016-10-02T01:18:59.653Z,735.11
2016-10-02T01:19:59.640Z,735.08
2016-10-02T01:20:59.628Z,735.09
2016-10-02T01:21:59.608Z,735.11
2016-10-02T01:22:59.603Z,735.1
2016-10-02T01:23:59.591Z,735.05
2016-10-02T01:24:59.578Z,735.05
2016-10-02T01:25:59.565Z,735.05
2016-10-02T01:26:59.552Z,735
2016-10-02T01:27:59.539Z,735.01
2016-10-02T01:28:59.527Z,734.98
2016-10-02T01:29:59.508Z,735.01
2016-10-02T01:30:59.502Z,735.01
2016-10-02T01:31:59.490Z,735.06
2016-10-02T01:32:59.471Z,734.98
2016-10-02T01:33:59.466Z,734.98
2016-10-02T01:34:59.454Z,735.05
2016-10-02T01:35:59.433Z,735.03
2016-10-02T01:36:59.427Z,735.03
2016-10-02T01:37:59.407Z,734.98
2016-10-02T01:38:59.395Z,734.93
2016-10-02T01:39:59.381Z,734.95
2016-10-02T01:40:59.377Z,734.94
2016-10-02T01:41:59.358Z,734.93
2016-10-02T01:42:59.345Z,734.88
2016-10-02T01:43:59.340Z,734.93
2016-10-02T01:44:59.319Z,734.89
2016-10-02T01:45:59.309Z,734.86
2016-10-02T01:46:59.302Z,734.84
2016-10-02T01:47:59.284Z,734.82
2016-10-02T01:48:59.278Z,734.81
2016-10-02T01:49:59.265Z,734.82
2016-10-02T01:50:59.257Z,734.8
2016-10-02T01:51:59.240Z,734.8
2016-10-02T01:52:59.227Z,734.81
2016-10-02T01:53:59.208Z,734.77
2016-10-02T01:54:59.203Z,734.8
2016-10-02T01:55:59.183Z,734.8
2016-10-02T01:56:59.171Z,734.81
2016-10-02T01:57:59.158Z,734.78
2016-10-02T01:58:59.152Z,734.77
2016-10-02T01:59:59.134Z,734.8
2016-10-02T02:00:59.120Z,734.75
2016-10-02T02:01:59.114Z,734.8
2016-10-02T02:02:59.096Z,734.78
2016-10-02T02:03:59.091Z,734.78
2016-10-02T02:04:59.071Z,734.76
2016-10-02T02:05:59.062Z,734.75
2016-10-02T02:06:59.046Z,734.75
2016-10-02T02:07:59.035Z,734.73
2016-10-02T02:08:59.028Z,734.72
2016-10-02T02:09:59.017Z,734.75
2016-10-02T02:10:59.005Z,734.75
2016-10-02T02:11:58.985Z,734.77
2016-10-02T02:12:58.972Z,734.73
2016-10-02T02:13:58.962Z,734.66
2016-10-02T02:14:58.948Z,734.67
2016-10-02T02:15:58.942Z,734.68
2016-10-02T02:16:58.923Z,734.7
2016-10-02T02:17:58.918Z,734.69
2016-10-02T02:18:58.899Z,734.73
2016-10-02T02:19:58.893Z,734.7
2016-10-02T02:20:58.874Z,734.71
2016-10-02T02:21:58.863Z,734.69
2016-10-02T02:22:58.857Z,734.69
2016-10-02T02:23:58.839Z,734.66
2016-10-02T02:24:58.826Z,734.7
2016-10-02T02:25:58.823Z,734.69
2016-10-02T02:26:58.803Z,734.69
2016-10-02T02:27:58.792Z,734.74
2016-10-02T02:28:58.786Z,734.72
2016-10-02T02:29:58.773Z,734.73
2016-10-02T02:30:58.755Z,734.74
2016-10-02T02:31:58.743Z,734.69
2016-10-02T02:32:58.737Z,734.67
2016-10-02T02:33:58.718Z,734.7
2016-10-02T02:34:58.706Z,734.68
2016-10-02T02:35:58.700Z,734.69
2016-10-02T02:36:58.682Z,734.6
2016-10-02T02:37:58.669Z,734.64
2016-10-02T02:38:58.664Z,734.59
2016-10-02T02:39:58.652Z,734.61
2016-10-02T02:40:58.633Z,734.61
2016-10-02T02:41:58.628Z,734.66
2016-10-02T02:42:58.615Z,734.63
2016-10-02T02:43:58.603Z,734.66
2016-10-02T02:44:58.583Z,734.58
2016-10-02T02:45:58.578Z,734.59
2016-10-02T02:46:58.565Z,734.59
2016-10-02T02:47:58.554Z,734.61
2016-10-02T02:48:58.541Z,734.57
2016-10-02T02:49:58.529Z,734.52
2016-10-02T02:50:58.518Z,734.56
2016-10-02T02:51:58.504Z,734.53
2016-10-02T02:52:58.695Z,734.55
2016-10-02T02:53:58.474Z,734.55
2016-10-02T02:54:58.463Z,734.53
2016-10-02T02:55:58.450Z,734.54
2016-10-02T02:56:58.438Z,734.56
2016-10-02T02:57:58.426Z,734.54
2016-10-02T02:58:58.421Z,734.53
2016-10-02T02:59:58.408Z,734.54
2016-10-02T03:00:58.395Z,734.58
2016-10-02T03:01:58.378Z,734.52
2016-10-02T03:02:58.371Z,734.55
2016-10-02T03:03:58.359Z,734.55
2016-10-02T03:04:58.340Z,734.5
2016-10-02T03:05:58.336Z,734.5
2016-10-02T03:06:58.323Z,734.5
2016-10-02T03:07:58.305Z,734.47
2016-10-02T03:08:58.300Z,734.5
2016-10-02T03:09:58.289Z,734.46
2016-10-02T03:10:58.276Z,734.5
2016-10-02T03:11:58.265Z,734.45
2016-10-02T03:12:58.253Z,734.46
2016-10-02T03:13:58.239Z,734.42
2016-10-02T03:14:58.221Z,734.43
2016-10-02T03:15:58.216Z,734.44
2016-10-02T03:16:58.205Z,734.45
2016-10-02T03:17:58.192Z,734.46
2016-10-02T03:18:58.180Z,734.43
2016-10-02T03:19:58.170Z,734.44
2016-10-02T03:20:58.152Z,734.45
2016-10-02T03:21:58.147Z,734.47
2016-10-02T03:22:58.135Z,734.42
2016-10-02T03:23:58.326Z,734.45
2016-10-02T03:24:58.104Z,734.46
2016-10-02T03:25:58.093Z,734.45
2016-10-02T03:26:58.082Z,734.44
2016-10-02T03:27:58.069Z,734.44
2016-10-02T03:28:58.064Z,734.43
2016-10-02T03:29:58.045Z,734.43
2016-10-02T03:30:58.035Z,734.44
2016-10-02T03:31:58.021Z,734.44
2016-10-02T03:32:58.016Z,734.42
2016-10-02T03:33:57.997Z,734.43
2016-10-02T03:34:57.987Z,734.44
2016-10-02T03:35:57.975Z,734.41
2016-10-02T03:36:57.963Z,734.4
2016-10-02T03:37:57.951Z,734.33
2016-10-02T03:38:57.947Z,734.42
2016-10-02T03:39:57.935Z,734.38
2016-10-02T03:40:57.924Z,734.37
2016-10-02T03:41:57.906Z,734.39
2016-10-02T03:42:57.892Z,734.36
2016-10-02T03:43:57.882Z,734.32
2016-10-02T03:44:57.876Z,734.31
2016-10-02T03:45:57.859Z,734.38
2016-10-02T03:46:57.852Z,734.28
2016-10-02T03:47:57.839Z,734.32
2016-10-02T03:48:57.821Z,734.33
2016-10-02T03:49:57.809Z,734.33
2016-10-02T03:50:57.803Z,734.32
2016-10-02T03:51:57.791Z,734.34
2016-10-02T03:52:57.772Z,734.37
2016-10-02T03:53:57.759Z,734.34
2016-10-02T03:54:57.754Z,734.3
2016-10-02T03:55:57.735Z,734.31
2016-10-02T03:56:57.723Z,734.31
2016-10-02T03:57:57.717Z,734.27
2016-10-02T03:58:57.706Z,734.27
2016-10-02T03:59:57.686Z,734.22
2016-10-02T04:00:57.682Z,734.28
2016-10-02T04:01:57.663Z,734.3
2016-10-02T04:02:57.651Z,734.25
2016-10-02T04:03:57.645Z,734.25
2016-10-02T04:04:57.632Z,734.27
2016-10-02T04:05:57.614Z,734.26
2016-10-02T04:06:57.608Z,734.26
2016-10-02T04:07:57.591Z,734.25
2016-10-02T04:08:57.584Z,734.29
2016-10-02T04:09:57.572Z,734.29
2016-10-02T04:10:57.554Z,734.26
2016-10-02T04:11:57.549Z,734.32
2016-10-02T04:12:57.535Z,734.35
2016-10-02T04:13:57.518Z,734.32
2016-10-02T04:14:57.506Z,734.35
2016-10-02T04:15:57.501Z,734.38
2016-10-02T04:16:57.489Z,734.4
2016-10-02T04:17:57.478Z,734.39
2016-10-02T04:18:57.459Z,734.38
2016-10-02T04:19:57.446Z,734.37
2016-10-02T04:20:57.436Z,734.35
2016-10-02T04:21:57.425Z,734.34
2016-10-02T04:22:57.420Z,734.34
2016-10-02T04:23:57.400Z,734.28
2016-10-02T04:24:57.395Z,734.32
2016-10-02T04:25:57.376Z,734.31
2016-10-02T04:26:57.365Z,734.3
2016-10-02T04:27:57.360Z,734.31
2016-10-02T04:28:57.341Z,734.32
2016-10-02T04:29:57.336Z,734.28
2016-10-02T04:30:57.316Z,734.33
2016-10-02T04:31:57.312Z,734.34
2016-10-02T04:32:57.294Z,734.37
2016-10-02T04:33:57.288Z,734.36
2016-10-02T04:34:57.275Z,734.38
2016-10-02T04:35:57.256Z,734.36
2016-10-02T04:36:57.245Z,734.39
2016-10-02T04:37:57.232Z,734.39
2016-10-02T04:38:57.221Z,734.37
2016-10-02T04:39:57.215Z,734.34
2016-10-02T04:40:57.202Z,734.38
2016-10-02T04:41:57.191Z,734.35
2016-10-02T04:42:57.180Z,734.36
2016-10-02T04:43:57.162Z,734.34
2016-10-02T04:44:57.157Z,734.32
2016-10-02T04:45:57.145Z,734.29
2016-10-02T04:46:57.127Z,734.24
2016-10-02T04:47:57.123Z,734.22
2016-10-02T04:48:57.104Z,734.24
2016-10-02T04:49:57.092Z,734.24
2016-10-02T04:50:57.081Z,734.26
2016-10-02T04:51:57.070Z,734.28
2016-10-02T04:52:57.057Z,734.28
2016-10-02T04:53:57.045Z,734.3
2016-10-02T04:54:57.040Z,734.28
2016-10-02T04:55:57.028Z,734.35
2016-10-02T04:56:57.016Z,734.33
2016-10-02T04:57:57.004Z,734.35
2016-10-02T04:58:56.991Z,734.34
2016-10-02T04:59:56.977Z,734.4
2016-10-02T05:00:56.965Z,734.36
2016-10-02T05:01:56.953Z,734.35
2016-10-02T05:02:56.934Z,734.35
2016-10-02T05:03:56.928Z,734.34
2016-10-02T05:04:56.909Z,734.34
2016-10-02T05:05:56.902Z,734.35
2016-10-02T05:06:56.890Z,734.34
2016-10-02T05:07:56.871Z,734.35
2016-10-02T05:08:56.858Z,734.35
2016-10-02T05:09:56.851Z,734.37
2016-10-02T05:10:56.840Z,734.37
2016-10-02T05:11:56.828Z,734.42
2016-10-02T05:12:56.816Z,734.44
2016-10-02T05:13:56.797Z,734.45
2016-10-02T05:14:56.792Z,734.45
2016-10-02T05:15:56.775Z,734.44
2016-10-02T05:16:56.763Z,734.44
2016-10-02T05:17:56.756Z,734.41
2016-10-02T05:18:56.745Z,734.38
2016-10-02T05:19:56.732Z,734.33
2016-10-02T05:20:56.714Z,734.31
2016-10-02T05:21:56.707Z,734.4
2016-10-02T05:22:56.695Z,734.32
2016-10-02T05:23:56.675Z,734.31
2016-10-02T05:24:56.669Z,734.26
2016-10-02T05:25:56.648Z,734.27
2016-10-02T05:26:56.636Z,734.34
2016-10-02T05:27:56.628Z,734.37
2016-10-02T05:28:56.614Z,734.36
2016-10-02T05:29:56.595Z,734.36
2016-10-02T05:30:56.587Z,734.3
2016-10-02T05:31:56.566Z,734.33
2016-10-02T05:32:56.559Z,734.29
2016-10-02T05:33:56.545Z,734.31
2016-10-02T05:34:56.531Z,734.37
2016-10-02T05:35:56.517Z,734.38
2016-10-02T05:36:56.503Z,734.35
2016-10-02T05:37:56.488Z,734.39
2016-10-02T05:38:56.487Z,734.37
2016-10-02T05:39:56.460Z,734.42
2016-10-02T05:40:56.447Z,734.4
2016-10-02T05:41:56.433Z,734.41
2016-10-02T05:42:56.413Z,734.4
2016-10-02T05:43:56.398Z,734.38
2016-10-02T05:44:56.387Z,734.47
2016-10-02T05:45:56.380Z,734.44
2016-10-02T05:46:56.367Z,734.46
2016-10-02T05:47:56.347Z,734.4
2016-10-02T05:48:56.332Z,734.44
2016-10-02T05:49:56.328Z,734.43
2016-10-02T05:50:56.314Z,734.41
2016-10-02T05:51:56.293Z,734.33
2016-10-02T05:52:56.288Z,734.36
2016-10-02T05:53:56.269Z,734.34
2016-10-02T05:54:56.257Z,734.34
2016-10-02T05:55:56.250Z,734.4
2016-10-02T05:56:56.238Z,734.42
2016-10-02T05:57:56.217Z,734.39
2016-10-02T05:58:56.204Z,734.42
2016-10-02T05:59:56.192Z,734.41
2016-10-02T06:00:56.186Z,734.43
2016-10-02T06:01:56.174Z,734.42
2016-10-02T06:02:56.153Z,734.41
2016-10-02T06:03:56.142Z,734.43
2016-10-02T06:04:56.135Z,734.41
2016-10-02T06:05:56.115Z,734.41
2016-10-02T06:06:56.110Z,734.43
2016-10-02T06:07:56.099Z,734.42
2016-10-02T06:08:56.080Z,734.35
2016-10-02T06:09:56.066Z,734.39
2016-10-02T06:10:56.070Z,734.43
2016-10-02T06:11:56.049Z,734.43
2016-10-02T06:12:56.036Z,734.39
2016-10-02T06:13:56.024Z,734.37
2016-10-02T06:14:56.012Z,734.35
2016-10-02T06:15:56.000Z,734.35
2016-10-02T06:16:55.981Z,734.34
2016-10-02T06:17:55.975Z,734.32
2016-10-02T06:18:55.964Z,734.33
2016-10-02T06:19:55.951Z,734.3
2016-10-02T06:20:55.930Z,734.33
2016-10-02T06:21:55.919Z,734.34
2016-10-02T06:22:55.909Z,734.36
2016-10-02T06:23:55.901Z,734.32
2016-10-02T06:24:55.889Z,734.33
2016-10-02T06:25:55.869Z,734.28
2016-10-02T06:26:55.865Z,734.31
2016-10-02T06:27:55.844Z,734.29
2016-10-02T06:28:55.840Z,734.26
2016-10-02T06:29:55.826Z,734.25
2016-10-02T06:30:55.814Z,734.26
2016-10-02T06:31:55.804Z,734.3
2016-10-02T06:32:55.791Z,734.31
2016-10-02T06:33:55.779Z,734.31
2016-10-02T06:34:55.760Z,734.31
2016-10-02T06:35:55.754Z,734.27
2016-10-02T06:36:55.735Z,734.31
2016-10-02T06:37:55.730Z,734.31
2016-10-02T06:38:55.711Z,734.29
2016-10-02T06:39:55.706Z,734.29
2016-10-02T06:40:55.687Z,734.31
2016-10-02T06:41:55.673Z,734.36
2016-10-02T06:42:55.660Z,734.39
2016-10-02T06:43:55.649Z,734.37
2016-10-02T06:44:55.637Z,734.34
2016-10-02T06:45:55.623Z,734.32
2016-10-02T06:46:55.617Z,734.33
2016-10-02T06:47:55.606Z,734.33
2016-10-02T06:48:55.586Z,734.35
2016-10-02T06:49:55.580Z,734.39
2016-10-02T06:50:55.562Z,734.37
2016-10-02T06:51:55.556Z,734.34
2016-10-02T06:52:55.535Z,734.39
2016-10-02T06:53:55.530Z,734.4
2016-10-02T06:54:55.517Z,734.37
2016-10-02T06:55:55.505Z,734.38
2016-10-02T06:56:55.491Z,734.39
2016-10-02T06:57:55.470Z,734.41
2016-10-02T06:58:55.458Z,734.41
2016-10-02T06:59:55.446Z,734.35
2016-10-02T07:00:55.432Z,734.35
2016-10-02T07:01:55.431Z,734.38
2016-10-02T07:02:55.406Z,734.43
2016-10-02T07:03:55.400Z,734.41
2016-10-02T07:04:55.380Z,734.45
2016-10-02T07:05:55.367Z,734.42
2016-10-02T07:06:55.354Z,734.42
2016-10-02T07:07:55.341Z,734.4
2016-10-02T07:08:55.335Z,734.41
2016-10-02T07:09:55.322Z,734.46
2016-10-02T07:10:55.303Z,734.48
2016-10-02T07:11:55.296Z,734.5
2016-10-02T07:12:55.278Z,734.48
2016-10-02T07:13:55.264Z,734.46
2016-10-02T07:14:55.251Z,734.48
2016-10-02T07:15:55.238Z,734.48
2016-10-02T07:16:55.234Z,734.4
2016-10-02T07:17:55.220Z,734.41
2016-10-02T07:18:55.208Z,734.41
2016-10-02T07:19:55.188Z,734.47
2016-10-02T07:20:55.175Z,734.4
2016-10-02T07:21:55.169Z,734.4
2016-10-02T07:22:55.156Z,734.37
2016-10-02T07:23:55.143Z,734.4
2016-10-02T07:24:55.124Z,734.36
2016-10-02T07:25:55.110Z,734.4
2016-10-02T07:26:55.105Z,734.47
2016-10-02T07:27:55.093Z,734.38
2016-10-02T07:28:55.073Z,734.35
2016-10-02T07:29:55.065Z,734.33
2016-10-02T07:30:55.052Z,734.36
2016-10-02T07:31:55.039Z,734.43
2016-10-02T07:32:55.025Z,734.57
2016-10-02T07:33:55.005Z,734.53
2016-10-02T07:34:54.991Z,734.54
2016-10-02T07:35:54.983Z,734.43
2016-10-02T07:36:54.974Z,734.42
2016-10-02T07:37:54.955Z,734.36
2016-10-02T07:38:54.934Z,734.37
2016-10-02T07:39:54.921Z,734.33
2016-10-02T07:40:54.912Z,734.33
2016-10-02T07:41:54.898Z,734.36
2016-10-02T07:42:54.885Z,734.44
2016-10-02T07:43:54.865Z,734.49
2016-10-02T07:44:55.156Z,734.49
2016-10-02T07:45:54.843Z,734.51
2016-10-02T07:46:54.829Z,734.52
2016-10-02T07:47:54.815Z,734.48
2016-10-02T07:48:54.801Z,734.45
2016-10-02T07:49:54.794Z,734.47
2016-10-02T07:50:54.842Z,734.47
2016-10-02T07:51:54.752Z,734.51
2016-10-02T07:52:54.740Z,734.5
2016-10-02T07:53:54.727Z,734.45
2016-10-02T07:54:54.712Z,734.46
2016-10-02T07:55:54.705Z,734.45
2016-10-02T07:56:54.685Z,734.46
2016-10-02T07:57:54.677Z,734.49
2016-10-02T07:58:54.657Z,734.51
2016-10-02T07:59:54.649Z,734.51
2016-10-02T08:00:54.627Z,734.56
2016-10-02T08:01:54.621Z,734.58
2016-10-02T08:02:54.606Z,734.58
2016-10-02T08:03:54.586Z,734.58
2016-10-02T08:04:54.579Z,734.58
2016-10-02T08:05:54.557Z,734.56
2016-10-02T08:06:54.551Z,734.59
2016-10-02T08:07:54.532Z,734.59
2016-10-02T08:08:54.523Z,734.6
2016-10-02T08:09:54.510Z,734.62
2016-10-02T08:10:54.488Z,734.61
2016-10-02T08:11:54.475Z,734.62
2016-10-02T08:12:54.459Z,734.61
2016-10-02T08:13:54.453Z,734.65
2016-10-02T08:14:54.439Z,734.7
2016-10-02T08:15:54.425Z,734.67
2016-10-02T08:16:54.403Z,734.67
2016-10-02T08:17:54.397Z,734.68
2016-10-02T08:18:54.377Z,734.72
2016-10-02T08:19:54.363Z,734.7
2016-10-02T08:20:54.355Z,734.73
2016-10-02T08:21:54.341Z,734.71
2016-10-02T08:22:54.321Z,734.7
2016-10-02T08:23:54.313Z,734.72
2016-10-02T08:24:54.293Z,734.74
2016-10-02T08:25:54.278Z,734.68
2016-10-02T08:26:54.272Z,734.71
2016-10-02T08:27:54.251Z,734.72
2016-10-02T08:28:54.239Z,734.72
2016-10-02T08:29:54.225Z,734.7
2016-10-02T08:30:54.218Z,734.78
2016-10-02T08:31:54.195Z,734.78
2016-10-02T08:32:54.191Z,734.76
2016-10-02T08:33:54.178Z,734.76
2016-10-02T08:34:54.157Z,734.73
2016-10-02T08:35:54.144Z,734.74
2016-10-02T08:36:54.138Z,734.77
2016-10-02T08:37:54.118Z,734.77
2016-10-02T08:38:54.104Z,734.76
2016-10-02T08:39:54.091Z,734.75
2016-10-02T08:40:54.079Z,734.75
2016-10-02T08:41:54.073Z,734.74
2016-10-02T08:42:54.059Z,734.75
2016-10-02T08:43:54.040Z,734.8
2016-10-02T08:44:54.026Z,734.78
2016-10-02T08:45:54.021Z,734.8
2016-10-02T08:46:54.007Z,734.81
2016-10-02T08:47:53.995Z,734.8
2016-10-02T08:48:53.982Z,734.85
2016-10-02T08:49:53.968Z,734.81
2016-10-02T08:50:53.950Z,734.82
2016-10-02T08:51:53.935Z,734.84
2016-10-02T08:52:53.930Z,734.78
2016-10-02T08:53:53.916Z,734.81
2016-10-02T08:54:53.903Z,734.88
2016-10-02T08:55:53.884Z,734.9
2016-10-02T08:56:53.872Z,734.81
2016-10-02T08:57:53.856Z,734.83
2016-10-02T08:58:53.850Z,734.89
2016-10-02T08:59:53.837Z,734.86
2016-10-02T09:00:53.823Z,734.87
2016-10-02T09:01:53.809Z,734.84
2016-10-02T09:02:53.789Z,734.83
2016-10-02T09:03:53.776Z,734.84
2016-10-02T09:04:53.763Z,734.85
2016-10-02T09:05:53.755Z,734.86
2016-10-02T09:06:53.736Z,734.83
2016-10-02T09:07:53.723Z,734.82
2016-10-02T09:08:53.708Z,734.79
2016-10-02T09:09:53.701Z,734.82
2016-10-02T09:10:53.682Z,734.79
2016-10-02T09:11:53.667Z,734.81
2016-10-02T09:12:53.654Z,734.83
2016-10-02T09:13:53.641Z,734.75
2016-10-02T09:14:53.639Z,734.79
2016-10-02T09:15:53.621Z,734.79
2016-10-02T09:16:53.600Z,734.77
2016-10-02T09:17:53.595Z,734.78
2016-10-02T09:18:53.574Z,734.79
2016-10-02T09:19:53.568Z,734.8
2016-10-02T09:20:53.555Z,734.75
2016-10-02T09:21:53.535Z,734.76
2016-10-02T09:22:53.527Z,734.72
2016-10-02T09:23:53.509Z,734.75
2016-10-02T09:24:53.497Z,734.77
2016-10-02T09:25:53.482Z,734.74
2016-10-02T09:26:53.469Z,734.71
2016-10-02T09:27:53.463Z,734.66
2016-10-02T09:28:53.443Z,734.67
2016-10-02T09:29:53.430Z,734.68
2016-10-02T09:30:53.423Z,734.69
2016-10-02T09:31:53.453Z,734.71
2016-10-02T09:32:53.390Z,734.72
2016-10-02T09:33:53.383Z,734.72
2016-10-02T09:34:53.370Z,734.72
2016-10-02T09:35:53.350Z,734.7
2016-10-02T09:36:53.338Z,734.73
2016-10-02T09:37:53.331Z,734.72
2016-10-02T09:38:53.311Z,734.74
2016-10-02T09:39:53.306Z,734.76
2016-10-02T09:40:53.285Z,734.8
2016-10-02T09:41:53.273Z,734.76
2016-10-02T09:42:53.262Z,734.72
2016-10-02T09:43:53.249Z,734.68
2016-10-02T09:44:53.235Z,734.71
2016-10-02T09:45:53.222Z,734.74
2016-10-02T09:46:53.210Z,734.76
2016-10-02T09:47:53.204Z,734.77
2016-10-02T09:48:53.191Z,734.73
2016-10-02T09:49:53.179Z,734.76
2016-10-02T09:50:53.166Z,734.7
2016-10-02T09:51:53.146Z,734.75
2016-10-02T09:52:53.134Z,734.76
2016-10-02T09:53:53.122Z,734.7
2016-10-02T09:54:53.108Z,734.68
2016-10-02T09:55:53.101Z,734.75
2016-10-02T09:56:53.090Z,734.76
2016-10-02T09:57:53.077Z,734.79
2016-10-02T09:58:53.058Z,734.71
2016-10-02T09:59:53.046Z,734.74
2016-10-02T10:00:53.033Z,734.73
2016-10-02T10:01:53.027Z,734.76
2016-10-02T10:02:53.006Z,734.78
2016-10-02T10:03:53.001Z,734.78
2016-10-02T10:04:52.990Z,734.78
2016-10-02T10:05:52.977Z,734.71
2016-10-02T10:06:52.963Z,734.7
2016-10-02T10:07:52.952Z,734.73
2016-10-02T10:08:52.932Z,734.71
2016-10-02T10:09:52.920Z,734.74
2016-10-02T10:10:52.907Z,734.73
2016-10-02T10:11:52.893Z,734.66
2016-10-02T10:12:52.881Z,734.6
2016-10-02T10:13:52.874Z,734.62
2016-10-02T10:14:52.854Z,734.68
2016-10-02T10:15:52.841Z,734.68
2016-10-02T10:16:52.835Z,734.57
2016-10-02T10:17:52.813Z,734.6
2016-10-02T10:18:52.808Z,734.63
2016-10-02T10:19:52.787Z,734.66
2016-10-02T10:20:52.774Z,734.61
2016-10-02T10:21:52.760Z,734.62
2016-10-02T10:22:52.748Z,734.62
2016-10-02T10:23:52.742Z,734.63
2016-10-02T10:24:52.727Z,734.66
2016-10-02T10:25:52.714Z,734.64
2016-10-02T10:26:52.702Z,734.65
2016-10-02T10:27:52.688Z,734.69
2016-10-02T10:28:52.667Z,734.7
2016-10-02T10:29:52.662Z,734.73
2016-10-02T10:30:52.643Z,734.72
2016-10-02T10:31:52.628Z,734.69
2016-10-02T10:32:52.616Z,734.69
2016-10-02T10:33:52.603Z,734.68
2016-10-02T10:34:52.596Z,734.66
2016-10-02T10:35:52.583Z,734.69
2016-10-02T10:36:52.563Z,734.65
2016-10-02T10:37:52.558Z,734.69
2016-10-02T10:38:52.545Z,734.68
2016-10-02T10:39:52.523Z,734.71
2016-10-02T10:40:52.518Z,734.7
2016-10-02T10:41:52.505Z,734.71
2016-10-02T10:42:52.493Z,734.68
2016-10-02T10:43:52.479Z,734.63
2016-10-02T10:44:52.460Z,734.67
2016-10-02T10:45:52.447Z,734.64
2016-10-02T10:46:52.432Z,734.66
2016-10-02T10:47:52.426Z,734.67
2016-10-02T10:48:52.419Z,734.64
2016-10-02T10:49:52.392Z,734.68
2016-10-02T10:50:52.379Z,734.67
2016-10-02T10:51:52.367Z,734.69
2016-10-02T10:52:52.354Z,734.74
2016-10-02T10:53:52.348Z,734.75
2016-10-02T10:54:52.334Z,734.71
2016-10-02T10:55:52.314Z,734.72
2016-10-02T10:56:52.586Z,734.7
2016-10-02T10:57:52.286Z,734.74
2016-10-02T10:58:52.281Z,734.74
2016-10-02T10:59:52.267Z,734.76
2016-10-02T11:00:52.249Z,734.81
2016-10-02T11:01:52.235Z,734.73
2016-10-02T11:02:52.228Z,734.7
2016-10-02T11:03:52.209Z,734.73
2016-10-02T11:04:52.203Z,734.78
2016-10-02T11:05:52.184Z,734.8
2016-10-02T11:06:52.177Z,734.7
2016-10-02T11:07:52.166Z,734.73
2016-10-02T11:08:52.145Z,734.74
2016-10-02T11:09:52.140Z,734.76
2016-10-02T11:10:52.120Z,734.79
2016-10-02T11:11:52.116Z,734.79
2016-10-02T11:12:52.103Z,734.79
2016-10-02T11:13:52.084Z,734.75
2016-10-02T11:14:52.072Z,734.78
2016-10-02T11:15:52.067Z,734.76
2016-10-02T11:16:52.055Z,734.79
2016-10-02T11:17:52.042Z,734.82
2016-10-02T11:18:52.030Z,734.86
2016-10-02T11:19:52.009Z,734.79
2016-10-02T11:20:52.020Z,734.75
2016-10-02T11:21:51.984Z,734.85
2016-10-02T11:22:51.971Z,734.77
2016-10-02T11:23:51.958Z,734.77
2016-10-02T11:24:51.952Z,734.76
2016-10-02T11:25:51.932Z,734.8
2016-10-02T11:26:51.923Z,734.8
2016-10-02T11:27:51.910Z,734.76
2016-10-02T11:28:51.890Z,734.83
2016-10-02T11:29:51.884Z,734.64
2016-10-02T11:30:51.863Z,734.65
2016-10-02T11:31:51.850Z,734.68
2016-10-02T11:32:51.888Z,734.62
2016-10-02T11:33:51.825Z,734.66
2016-10-02T11:34:51.806Z,734.73
2016-10-02T11:35:51.794Z,734.73
2016-10-02T11:36:51.780Z,734.73
2016-10-02T11:37:51.763Z,734.74
2016-10-02T11:38:51.757Z,734.72
2016-10-02T11:39:51.737Z,734.73
2016-10-02T11:40:51.723Z,734.72
2016-10-02T11:41:51.715Z,734.72
2016-10-02T11:42:51.695Z,734.71
2016-10-02T11:43:51.689Z,734.71
2016-10-02T11:44:51.667Z,734.68
2016-10-02T11:45:51.660Z,734.67
2016-10-02T11:46:51.647Z,734.68
2016-10-02T11:47:51.632Z,734.68
2016-10-02T11:48:51.619Z,734.68
2016-10-02T11:49:51.597Z,734.64
2016-10-02T11:50:51.592Z,734.61
2016-10-02T11:51:51.577Z,734.63
2016-10-02T11:52:51.563Z,734.58
2016-10-02T11:53:51.542Z,734.64
2016-10-02T11:54:51.536Z,734.55
2016-10-02T11:55:51.516Z,734.61
2016-10-02T11:56:51.507Z,734.57
2016-10-02T11:57:51.493Z,734.59
2016-10-02T11:58:51.480Z,734.56
2016-10-02T11:59:51.463Z,734.56
2016-10-02T12:00:51.450Z,734.55
2016-10-02T12:01:51.435Z,734.55
2016-10-02T12:02:51.421Z,734.49
2016-10-02T12:03:51.405Z,734.45
2016-10-02T12:04:51.385Z,734.42
2016-10-02T12:05:51.377Z,734.46
2016-10-02T12:06:51.363Z,734.4
2016-10-02T12:07:51.347Z,734.43
2016-10-02T12:08:51.327Z,734.38
2016-10-02T12:09:51.313Z,734.42
2016-10-02T12:10:51.304Z,734.39
2016-10-02T12:11:51.284Z,734.43
2016-10-02T12:12:51.268Z,734.44
2016-10-02T12:13:51.253Z,734.36
2016-10-02T12:14:51.238Z,734.3
2016-10-02T12:15:51.231Z,734.29
2016-10-02T12:16:51.210Z,734.23
2016-10-02T12:17:51.197Z,734.3
2016-10-02T12:18:51.182Z,734.29
2016-10-02T12:19:51.166Z,734.32
2016-10-02T12:20:51.152Z,734.33
2016-10-02T12:21:51.138Z,734.33
2016-10-02T12:22:51.136Z,734.31
2016-10-02T12:23:51.116Z,734.3
2016-10-02T12:24:51.103Z,734.36
2016-10-02T12:25:51.081Z,734.31
2016-10-02T12:26:51.074Z,734.36
2016-10-02T12:27:51.060Z,734.34
2016-10-02T12:28:51.040Z,734.35
2016-10-02T12:29:51.024Z,734.4
2016-10-02T12:30:51.017Z,734.4